De Soto, KS

10:29 AM CDT on April 28, 2015 (GMT -0500)
Kansas City Downtown | | Change Station
CLOSE
Current Station
Airport
Location: Kansas City,
Elevation: 758 ft
Nearby Weather Stations

Elev 758 ft 39.12 °N, 94.60 °W | Updated 35 minutes ago

Partly Cloudy
Partly Cloudy
60 °F
Feels Like 60 °F
N
0
Wind Variable Wind from North

Today
High -- | Low -- °F
--% Chance of Precip.
Yesterday
High -- | Low -- °F
Precip. -- in
6:25 AM 8:09 PM
Waxing Gibbous, 74% visible
Pressure 30.17 in
Visibility 10.0 miles
Clouds Clear
Dew Point 41 °F
Humidity 49%
Rainfall 0.00 in
Snow Depth Not available.
UV 5 out of 12
Pollen 8.80 out of 12
Air Quality Not available.
Flu Activity Sporadic
METAR KMKC 281454Z 00000KT 10SM CLR 16/05 A3017 RMK AO2 SLP214 T01560050 50003

More Conditions Fewer Conditions

Pressure 30.17 in
Visibility 10.0 miles
Clouds Clear
Dew Point 41 °F
Humidity 49%
Rainfall 0.00 in
Snow Depth Not available.
UV 5 out of 12
Pollen 8.80 out of 12
Air Quality Not available.
Flu Activity Sporadic
METAR KMKC 281454Z 00000KT 10SM CLR 16/05 A3017 RMK AO2 SLP214 T01560050 50003

More Conditions Fewer Conditions

10-Day Weather Forecast

Almanac

Astronomy

Apr. 28, 2015 Rise Set
Actual Time
Civil Twilight
Nautical Twilight
Astronomical Twilight
Moon
Length of Visible Light
Length of Day
Tomorrow will be .
, % of the Moon is Illuminated

Today's Extremes

State Highs State Lows

Community

WunderPhotos

Upload Photos

1,817,661 photos uploaded!

WunderBlogs® & News

Nearby

Air Quality

  Air Quality AQ Index Pollutant
Not available.

Snow Depth

Station Depth Elevation

Earthquake Activity

City Distance Mag. Time & Date
Minimum magnitude displayed is 2.5.

Coastal Water Temperatures

Place Temperature

Stations

Nearby Weather Stations

Station Location Temp. Windchill Dew Point Humidity Wind Precip. Elev Updated Type